sensor_id;sensor_type;location;lat;lon;timestamp;P1;durP1;ratioP1;P2;durP2;ratioP2
16731;SDS011;8484;50.904;9.192;2023-02-28T00:00:24;4.27;;;3.00;;
16731;SDS011;8484;50.904;9.192;2023-02-28T00:02:51;2.77;;;2.57;;
16731;SDS011;8484;50.904;9.192;2023-02-28T00:05:20;2.63;;;2.43;;
16731;SDS011;8484;50.904;9.192;2023-02-28T00:07:48;2.90;;;2.67;;
16731;SDS011;8484;50.904;9.192;2023-02-28T00:10:16;3.23;;;2.93;;
16731;SDS011;8484;50.904;9.192;2023-02-28T00:12:45;3.00;;;2.80;;
16731;SDS011;8484;50.904;9.192;2023-02-28T00:15:12;2.90;;;2.70;;
16731;SDS011;8484;50.904;9.192;2023-02-28T00:17:39;3.07;;;2.80;;
16731;SDS011;8484;50.904;9.192;2023-02-28T00:20:06;3.47;;;3.10;;
16731;SDS011;8484;50.904;9.192;2023-02-28T00:22:36;4.83;;;2.87;;
16731;SDS011;8484;50.904;9.192;2023-02-28T00:25:05;3.43;;;2.70;;
16731;SDS011;8484;50.904;9.192;2023-02-28T00:27:33;3.10;;;2.80;;
16731;SDS011;8484;50.904;9.192;2023-02-28T00:30:00;3.20;;;3.00;;
16731;SDS011;8484;50.904;9.192;2023-02-28T00:32:27;3.70;;;3.00;;
16731;SDS011;8484;50.904;9.192;2023-02-28T00:34:54;3.20;;;2.90;;
16731;SDS011;8484;50.904;9.192;2023-02-28T00:37:21;3.20;;;3.00;;
16731;SDS011;8484;50.904;9.192;2023-02-28T00:39:50;3.43;;;3.13;;
16731;SDS011;8484;50.904;9.192;2023-02-28T00:42:17;3.10;;;2.90;;
16731;SDS011;8484;50.904;9.192;2023-02-28T00:44:43;3.63;;;3.03;;
16731;SDS011;8484;50.904;9.192;2023-02-28T00:47:10;3.50;;;3.20;;
16731;SDS011;8484;50.904;9.192;2023-02-28T00:49:37;3.50;;;3.20;;
16731;SDS011;8484;50.904;9.192;2023-02-28T00:52:04;3.50;;;3.20;;
16731;SDS011;8484;50.904;9.192;2023-02-28T00:54:31;3.27;;;3.07;;
16731;SDS011;8484;50.904;9.192;2023-02-28T00:56:59;3.87;;;3.47;;
16731;SDS011;8484;50.904;9.192;2023-02-28T00:59:26;3.70;;;3.43;;
16731;SDS011;8484;50.904;9.192;2023-02-28T01:01:52;3.63;;;3.33;;
16731;SDS011;8484;50.904;9.192;2023-02-28T01:04:19;3.80;;;3.50;;
16731;SDS011;8484;50.904;9.192;2023-02-28T01:06:46;3.80;;;3.50;;
16731;SDS011;8484;50.904;9.192;2023-02-28T01:09:13;3.70;;;3.40;;
16731;SDS011;8484;50.904;9.192;2023-02-28T01:11:40;4.00;;;3.70;;
16731;SDS011;8484;50.904;9.192;2023-02-28T01:14:10;3.83;;;3.53;;
16731;SDS011;8484;50.904;9.192;2023-02-28T01:16:38;4.07;;;3.77;;
16731;SDS011;8484;50.904;9.192;2023-02-28T01:19:05;4.13;;;3.73;;
16731;SDS011;8484;50.904;9.192;2023-02-28T01:21:31;3.90;;;3.30;;
16731;SDS011;8484;50.904;9.192;2023-02-28T01:24:00;3.80;;;3.50;;
16731;SDS011;8484;50.904;9.192;2023-02-28T01:26:27;3.67;;;3.37;;
16731;SDS011;8484;50.904;9.192;2023-02-28T01:28:54;4.10;;;3.70;;
16731;SDS011;8484;50.904;9.192;2023-02-28T01:31:23;3.90;;;3.60;;
16731;SDS011;8484;50.904;9.192;2023-02-28T01:33:50;3.20;;;3.00;;
16731;SDS011;8484;50.904;9.192;2023-02-28T01:36:18;3.73;;;3.50;;
16731;SDS011;8484;50.904;9.192;2023-02-28T01:38:47;3.43;;;3.23;;
16731;SDS011;8484;50.904;9.192;2023-02-28T01:41:16;3.57;;;3.30;;
16731;SDS011;8484;50.904;9.192;2023-02-28T01:43:55;4.27;;;3.30;;
16731;SDS011;8484;50.904;9.192;2023-02-28T01:46:25;4.50;;;3.37;;
16731;SDS011;8484;50.904;9.192;2023-02-28T01:48:53;3.60;;;3.30;;
16731;SDS011;8484;50.904;9.192;2023-02-28T01:51:24;3.30;;;3.10;;
16731;SDS011;8484;50.904;9.192;2023-02-28T01:53:56;3.43;;;3.13;;
16731;SDS011;8484;50.904;9.192;2023-02-28T01:56:27;3.33;;;3.13;;
16731;SDS011;8484;50.904;9.192;2023-02-28T01:58:56;3.43;;;3.23;;
16731;SDS011;8484;50.904;9.192;2023-02-28T02:01:25;3.73;;;3.43;;
16731;SDS011;8484;50.904;9.192;2023-02-28T02:03:54;3.73;;;3.43;;
16731;SDS011;8484;50.904;9.192;2023-02-28T02:06:23;3.67;;;3.37;;
16731;SDS011;8484;50.904;9.192;2023-02-28T02:08:53;3.40;;;3.20;;
16731;SDS011;8484;50.904;9.192;2023-02-28T02:11:20;3.27;;;3.07;;
16731;SDS011;8484;50.904;9.192;2023-02-28T02:14:03;3.37;;;3.17;;
16731;SDS011;8484;50.904;9.192;2023-02-28T02:16:51;3.63;;;3.33;;
16731;SDS011;8484;50.904;9.192;2023-02-28T02:19:39;3.33;;;3.13;;
16731;SDS011;8484;50.904;9.192;2023-02-28T02:22:37;3.43;;;3.23;;
16731;SDS011;8484;50.904;9.192;2023-02-28T02:25:31;3.67;;;3.37;;
16731;SDS011;8484;50.904;9.192;2023-02-28T02:28:19;3.50;;;3.30;;
16731;SDS011;8484;50.904;9.192;2023-02-28T02:34:21;3.80;;;3.50;;
16731;SDS011;8484;50.904;9.192;2023-02-28T02:37:08;3.90;;;3.60;;
16731;SDS011;8484;50.904;9.192;2023-02-28T02:39:44;3.73;;;3.43;;
16731;SDS011;8484;50.904;9.192;2023-02-28T02:42:19;3.73;;;3.40;;
16731;SDS011;8484;50.904;9.192;2023-02-28T02:44:51;3.50;;;3.30;;
16731;SDS011;8484;50.904;9.192;2023-02-28T02:47:22;3.93;;;3.63;;
16731;SDS011;8484;50.904;9.192;2023-02-28T02:49:54;3.47;;;3.17;;
16731;SDS011;8484;50.904;9.192;2023-02-28T02:52:24;3.57;;;3.23;;
16731;SDS011;8484;50.904;9.192;2023-02-28T02:54:57;3.07;;;2.87;;
16731;SDS011;8484;50.904;9.192;2023-02-28T02:57:27;3.60;;;2.90;;
16731;SDS011;8484;50.904;9.192;2023-02-28T02:59:58;2.83;;;2.63;;
16731;SDS011;8484;50.904;9.192;2023-02-28T03:02:26;3.57;;;3.27;;
16731;SDS011;8484;50.904;9.192;2023-02-28T03:05:01;2.93;;;2.67;;
16731;SDS011;8484;50.904;9.192;2023-02-28T03:07:32;3.60;;;3.07;;
16731;SDS011;8484;50.904;9.192;2023-02-28T03:09:59;4.40;;;2.87;;
16731;SDS011;8484;50.904;9.192;2023-02-28T03:12:27;3.20;;;3.00;;
16731;SDS011;8484;50.904;9.192;2023-02-28T03:15:02;3.07;;;2.87;;
16731;SDS011;8484;50.904;9.192;2023-02-28T03:17:42;2.87;;;2.67;;
16731;SDS011;8484;50.904;9.192;2023-02-28T03:20:18;3.00;;;2.80;;
16731;SDS011;8484;50.904;9.192;2023-02-28T03:23:00;3.27;;;2.97;;
16731;SDS011;8484;50.904;9.192;2023-02-28T03:25:33;3.07;;;2.87;;
16731;SDS011;8484;50.904;9.192;2023-02-28T03:28:06;2.93;;;2.73;;
16731;SDS011;8484;50.904;9.192;2023-02-28T03:30:42;3.37;;;3.07;;
16731;SDS011;8484;50.904;9.192;2023-02-28T03:33:17;3.23;;;2.97;;
16731;SDS011;8484;50.904;9.192;2023-02-28T03:35:51;3.43;;;3.07;;
16731;SDS011;8484;50.904;9.192;2023-02-28T03:38:22;3.17;;;2.97;;
16731;SDS011;8484;50.904;9.192;2023-02-28T03:40:55;3.33;;;3.13;;
16731;SDS011;8484;50.904;9.192;2023-02-28T03:43:28;3.50;;;3.30;;
16731;SDS011;8484;50.904;9.192;2023-02-28T03:45:56;3.47;;;3.17;;
16731;SDS011;8484;50.904;9.192;2023-02-28T03:48:27;3.37;;;3.17;;
16731;SDS011;8484;50.904;9.192;2023-02-28T03:50:59;3.37;;;3.17;;
16731;SDS011;8484;50.904;9.192;2023-02-28T03:53:29;3.30;;;3.10;;
16731;SDS011;8484;50.904;9.192;2023-02-28T03:56:01;3.20;;;2.90;;
16731;SDS011;8484;50.904;9.192;2023-02-28T03:58:33;3.47;;;3.17;;
16731;SDS011;8484;50.904;9.192;2023-02-28T04:01:05;3.20;;;3.00;;
16731;SDS011;8484;50.904;9.192;2023-02-28T04:03:35;3.10;;;2.90;;
16731;SDS011;8484;50.904;9.192;2023-02-28T04:06:04;3.20;;;3.00;;
16731;SDS011;8484;50.904;9.192;2023-02-28T04:08:34;3.10;;;2.90;;
16731;SDS011;8484;50.904;9.192;2023-02-28T04:11:01;3.00;;;2.80;;
16731;SDS011;8484;50.904;9.192;2023-02-28T04:13:32;3.30;;;3.10;;
16731;SDS011;8484;50.904;9.192;2023-02-28T04:15:59;3.33;;;3.10;;
16731;SDS011;8484;50.904;9.192;2023-02-28T04:18:26;3.40;;;3.10;;
16731;SDS011;8484;50.904;9.192;2023-02-28T04:20:53;3.10;;;2.90;;
16731;SDS011;8484;50.904;9.192;2023-02-28T04:23:21;5.90;;;3.20;;
16731;SDS011;8484;50.904;9.192;2023-02-28T04:25:48;3.37;;;3.17;;
16731;SDS011;8484;50.904;9.192;2023-02-28T04:28:16;3.27;;;3.00;;
16731;SDS011;8484;50.904;9.192;2023-02-28T04:30:43;3.10;;;2.90;;
16731;SDS011;8484;50.904;9.192;2023-02-28T04:33:09;3.00;;;2.80;;
16731;SDS011;8484;50.904;9.192;2023-02-28T04:35:36;4.17;;;3.43;;
16731;SDS011;8484;50.904;9.192;2023-02-28T04:38:03;3.47;;;3.17;;
16731;SDS011;8484;50.904;9.192;2023-02-28T04:40:31;3.20;;;3.00;;
16731;SDS011;8484;50.904;9.192;2023-02-28T04:42:58;5.87;;;3.27;;
16731;SDS011;8484;50.904;9.192;2023-02-28T04:45:25;3.60;;;3.30;;
16731;SDS011;8484;50.904;9.192;2023-02-28T04:47:55;3.10;;;2.90;;
16731;SDS011;8484;50.904;9.192;2023-02-28T04:50:21;3.43;;;3.23;;
16731;SDS011;8484;50.904;9.192;2023-02-28T04:52:48;3.10;;;2.90;;
16731;SDS011;8484;50.904;9.192;2023-02-28T04:55:15;3.00;;;2.80;;
16731;SDS011;8484;50.904;9.192;2023-02-28T04:57:43;3.07;;;2.87;;
16731;SDS011;8484;50.904;9.192;2023-02-28T05:00:10;3.20;;;2.90;;
16731;SDS011;8484;50.904;9.192;2023-02-28T05:02:41;3.27;;;3.03;;
16731;SDS011;8484;50.904;9.192;2023-02-28T05:05:08;3.30;;;3.10;;
16731;SDS011;8484;50.904;9.192;2023-02-28T05:07:35;4.13;;;3.73;;
16731;SDS011;8484;50.904;9.192;2023-02-28T05:10:02;3.50;;;3.20;;
16731;SDS011;8484;50.904;9.192;2023-02-28T05:12:29;3.37;;;3.17;;
16731;SDS011;8484;50.904;9.192;2023-02-28T05:14:58;3.90;;;3.60;;
16731;SDS011;8484;50.904;9.192;2023-02-28T05:17:26;4.10;;;3.70;;
16731;SDS011;8484;50.904;9.192;2023-02-28T05:19:53;4.77;;;3.63;;
16731;SDS011;8484;50.904;9.192;2023-02-28T05:22:20;3.17;;;2.97;;
16731;SDS011;8484;50.904;9.192;2023-02-28T05:24:47;4.07;;;3.23;;
16731;SDS011;8484;50.904;9.192;2023-02-28T05:27:14;3.70;;;3.40;;
16731;SDS011;8484;50.904;9.192;2023-02-28T05:29:41;3.43;;;3.23;;
16731;SDS011;8484;50.904;9.192;2023-02-28T05:32:11;3.17;;;2.97;;
16731;SDS011;8484;50.904;9.192;2023-02-28T05:34:39;3.20;;;3.00;;
16731;SDS011;8484;50.904;9.192;2023-02-28T05:37:06;3.20;;;3.00;;
16731;SDS011;8484;50.904;9.192;2023-02-28T05:39:36;3.23;;;2.93;;
16731;SDS011;8484;50.904;9.192;2023-02-28T05:42:04;3.20;;;2.97;;
16731;SDS011;8484;50.904;9.192;2023-02-28T05:44:31;3.47;;;3.17;;
16731;SDS011;8484;50.904;9.192;2023-02-28T05:46:58;3.47;;;3.17;;
16731;SDS011;8484;50.904;9.192;2023-02-28T05:49:29;3.10;;;2.90;;
16731;SDS011;8484;50.904;9.192;2023-02-28T05:51:56;3.33;;;3.03;;
16731;SDS011;8484;50.904;9.192;2023-02-28T05:54:23;3.17;;;2.97;;
16731;SDS011;8484;50.904;9.192;2023-02-28T05:56:50;3.00;;;2.80;;
16731;SDS011;8484;50.904;9.192;2023-02-28T05:59:17;3.20;;;2.90;;
16731;SDS011;8484;50.904;9.192;2023-02-28T06:01:44;3.83;;;2.97;;
16731;SDS011;8484;50.904;9.192;2023-02-28T06:04:14;3.30;;;3.00;;
16731;SDS011;8484;50.904;9.192;2023-02-28T06:06:45;3.10;;;2.90;;
16731;SDS011;8484;50.904;9.192;2023-02-28T06:09:12;2.90;;;2.70;;
16731;SDS011;8484;50.904;9.192;2023-02-28T06:11:39;2.80;;;2.70;;
16731;SDS011;8484;50.904;9.192;2023-02-28T06:14:07;2.83;;;2.67;;
16731;SDS011;8484;50.904;9.192;2023-02-28T06:16:39;3.20;;;3.00;;
16731;SDS011;8484;50.904;9.192;2023-02-28T06:19:06;2.87;;;2.60;;
16731;SDS011;8484;50.904;9.192;2023-02-28T06:21:33;4.27;;;3.10;;
16731;SDS011;8484;50.904;9.192;2023-02-28T06:24:01;2.90;;;2.70;;
16731;SDS011;8484;50.904;9.192;2023-02-28T06:26:29;2.70;;;2.50;;
16731;SDS011;8484;50.904;9.192;2023-02-28T06:28:56;2.80;;;2.60;;
16731;SDS011;8484;50.904;9.192;2023-02-28T06:31:23;2.50;;;2.40;;
16731;SDS011;8484;50.904;9.192;2023-02-28T06:33:50;2.80;;;2.60;;
16731;SDS011;8484;50.904;9.192;2023-02-28T06:36:17;2.70;;;2.50;;
16731;SDS011;8484;50.904;9.192;2023-02-28T06:38:45;2.80;;;2.57;;
16731;SDS011;8484;50.904;9.192;2023-02-28T06:41:17;2.93;;;2.73;;
16731;SDS011;8484;50.904;9.192;2023-02-28T06:43:44;2.77;;;2.57;;
16731;SDS011;8484;50.904;9.192;2023-02-28T06:46:12;3.20;;;2.90;;
16731;SDS011;8484;50.904;9.192;2023-02-28T06:48:39;2.70;;;2.50;;
16731;SDS011;8484;50.904;9.192;2023-02-28T06:51:08;3.20;;;2.90;;
16731;SDS011;8484;50.904;9.192;2023-02-28T06:53:37;2.80;;;2.60;;
16731;SDS011;8484;50.904;9.192;2023-02-28T06:56:04;2.50;;;2.30;;
16731;SDS011;8484;50.904;9.192;2023-02-28T06:58:33;2.90;;;2.70;;
16731;SDS011;8484;50.904;9.192;2023-02-28T07:01:00;2.90;;;2.70;;
16731;SDS011;8484;50.904;9.192;2023-02-28T07:03:28;2.83;;;2.63;;
16731;SDS011;8484;50.904;9.192;2023-02-28T07:05:55;2.77;;;2.50;;
16731;SDS011;8484;50.904;9.192;2023-02-28T07:08:22;2.90;;;2.70;;
16731;SDS011;8484;50.904;9.192;2023-02-28T07:10:51;3.10;;;2.90;;
16731;SDS011;8484;50.904;9.192;2023-02-28T07:13:18;3.83;;;3.63;;
16731;SDS011;8484;50.904;9.192;2023-02-28T07:15:53;3.23;;;3.03;;
16731;SDS011;8484;50.904;9.192;2023-02-28T07:18:21;3.27;;;3.07;;
16731;SDS011;8484;50.904;9.192;2023-02-28T07:20:48;4.67;;;3.30;;
16731;SDS011;8484;50.904;9.192;2023-02-28T07:23:15;3.23;;;2.70;;
16731;SDS011;8484;50.904;9.192;2023-02-28T07:25:42;2.60;;;2.43;;
16731;SDS011;8484;50.904;9.192;2023-02-28T07:28:10;2.80;;;2.60;;
16731;SDS011;8484;50.904;9.192;2023-02-28T07:30:38;2.70;;;2.60;;
16731;SDS011;8484;50.904;9.192;2023-02-28T07:33:06;2.97;;;2.77;;
16731;SDS011;8484;50.904;9.192;2023-02-28T07:35:33;3.07;;;2.87;;
16731;SDS011;8484;50.904;9.192;2023-02-28T07:38:00;2.83;;;2.63;;
16731;SDS011;8484;50.904;9.192;2023-02-28T07:40:27;2.60;;;2.50;;
16731;SDS011;8484;50.904;9.192;2023-02-28T07:42:54;2.47;;;2.30;;
16731;SDS011;8484;50.904;9.192;2023-02-28T07:45:21;2.53;;;2.33;;
16731;SDS011;8484;50.904;9.192;2023-02-28T07:47:48;2.43;;;2.30;;
16731;SDS011;8484;50.904;9.192;2023-02-28T07:50:16;2.60;;;2.40;;
16731;SDS011;8484;50.904;9.192;2023-02-28T07:52:43;2.30;;;2.20;;
16731;SDS011;8484;50.904;9.192;2023-02-28T07:55:10;4.33;;;2.20;;
16731;SDS011;8484;50.904;9.192;2023-02-28T07:57:38;2.37;;;2.20;;
16731;SDS011;8484;50.904;9.192;2023-02-28T08:00:06;2.40;;;2.20;;
16731;SDS011;8484;50.904;9.192;2023-02-28T08:02:35;2.57;;;2.37;;
16731;SDS011;8484;50.904;9.192;2023-02-28T08:05:02;2.60;;;2.40;;
16731;SDS011;8484;50.904;9.192;2023-02-28T08:07:31;2.63;;;2.40;;
16731;SDS011;8484;50.904;9.192;2023-02-28T08:09:58;2.57;;;2.37;;
16731;SDS011;8484;50.904;9.192;2023-02-28T08:12:25;2.27;;;2.17;;
16731;SDS011;8484;50.904;9.192;2023-02-28T08:14:52;3.30;;;2.40;;
16731;SDS011;8484;50.904;9.192;2023-02-28T08:17:19;2.70;;;2.50;;
16731;SDS011;8484;50.904;9.192;2023-02-28T08:19:46;2.50;;;2.40;;
16731;SDS011;8484;50.904;9.192;2023-02-28T08:22:12;3.30;;;2.40;;
16731;SDS011;8484;50.904;9.192;2023-02-28T08:24:42;3.53;;;2.50;;
16731;SDS011;8484;50.904;9.192;2023-02-28T08:27:09;2.50;;;2.30;;
16731;SDS011;8484;50.904;9.192;2023-02-28T08:29:36;2.50;;;2.30;;
16731;SDS011;8484;50.904;9.192;2023-02-28T08:32:04;2.50;;;2.30;;
16731;SDS011;8484;50.904;9.192;2023-02-28T08:34:31;2.33;;;2.20;;
16731;SDS011;8484;50.904;9.192;2023-02-28T08:36:58;2.80;;;2.60;;
16731;SDS011;8484;50.904;9.192;2023-02-28T08:39:27;2.80;;;2.60;;
16731;SDS011;8484;50.904;9.192;2023-02-28T08:41:56;2.87;;;2.67;;
16731;SDS011;8484;50.904;9.192;2023-02-28T08:44:22;2.73;;;2.53;;
16731;SDS011;8484;50.904;9.192;2023-02-28T08:46:49;2.37;;;2.27;;
16731;SDS011;8484;50.904;9.192;2023-02-28T08:49:16;2.87;;;2.67;;
16731;SDS011;8484;50.904;9.192;2023-02-28T08:51:43;2.53;;;2.33;;
16731;SDS011;8484;50.904;9.192;2023-02-28T08:54:10;4.00;;;2.67;;
16731;SDS011;8484;50.904;9.192;2023-02-28T08:56:39;2.43;;;2.23;;
16731;SDS011;8484;50.904;9.192;2023-02-28T08:59:08;2.53;;;2.40;;
16731;SDS011;8484;50.904;9.192;2023-02-28T09:01:35;4.07;;;2.50;;
16731;SDS011;8484;50.904;9.192;2023-02-28T09:04:02;2.73;;;2.50;;
16731;SDS011;8484;50.904;9.192;2023-02-28T09:06:29;2.50;;;2.30;;
16731;SDS011;8484;50.904;9.192;2023-02-28T09:08:58;2.43;;;2.10;;
16731;SDS011;8484;50.904;9.192;2023-02-28T09:11:26;2.20;;;2.10;;
16731;SDS011;8484;50.904;9.192;2023-02-28T09:13:53;2.60;;;2.40;;
16731;SDS011;8484;50.904;9.192;2023-02-28T09:16:23;2.63;;;2.47;;
16731;SDS011;8484;50.904;9.192;2023-02-28T09:18:49;2.57;;;2.37;;
16731;SDS011;8484;50.904;9.192;2023-02-28T09:21:17;2.30;;;2.20;;
16731;SDS011;8484;50.904;9.192;2023-02-28T09:23:45;2.00;;;1.90;;
16731;SDS011;8484;50.904;9.192;2023-02-28T09:26:14;2.43;;;2.23;;
16731;SDS011;8484;50.904;9.192;2023-02-28T09:28:42;2.60;;;2.40;;
16731;SDS011;8484;50.904;9.192;2023-02-28T09:31:11;2.37;;;2.27;;
16731;SDS011;8484;50.904;9.192;2023-02-28T09:33:40;2.60;;;2.40;;
16731;SDS011;8484;50.904;9.192;2023-02-28T09:36:07;3.37;;;3.07;;
16731;SDS011;8484;50.904;9.192;2023-02-28T09:38:34;3.00;;;2.73;;
16731;SDS011;8484;50.904;9.192;2023-02-28T09:41:02;3.10;;;2.90;;
16731;SDS011;8484;50.904;9.192;2023-02-28T09:43:32;2.90;;;2.40;;
16731;SDS011;8484;50.904;9.192;2023-02-28T09:46:03;4.00;;;3.07;;
16731;SDS011;8484;50.904;9.192;2023-02-28T09:48:37;3.63;;;3.33;;
16731;SDS011;8484;50.904;9.192;2023-02-28T09:51:12;2.90;;;2.70;;
16731;SDS011;8484;50.904;9.192;2023-02-28T09:53:49;3.43;;;3.17;;
16731;SDS011;8484;50.904;9.192;2023-02-28T09:56:18;3.70;;;3.40;;
16731;SDS011;8484;50.904;9.192;2023-02-28T09:58:52;3.60;;;3.37;;
16731;SDS011;8484;50.904;9.192;2023-02-28T10:01:23;3.30;;;3.10;;
16731;SDS011;8484;50.904;9.192;2023-02-28T10:03:58;2.60;;;2.40;;
16731;SDS011;8484;50.904;9.192;2023-02-28T10:06:30;2.83;;;2.63;;
16731;SDS011;8484;50.904;9.192;2023-02-28T10:09:03;3.17;;;2.87;;
16731;SDS011;8484;50.904;9.192;2023-02-28T10:11:35;3.53;;;3.20;;
16731;SDS011;8484;50.904;9.192;2023-02-28T10:14:05;3.33;;;3.03;;
16731;SDS011;8484;50.904;9.192;2023-02-28T10:16:40;3.67;;;3.37;;
16731;SDS011;8484;50.904;9.192;2023-02-28T10:19:13;3.73;;;3.43;;
16731;SDS011;8484;50.904;9.192;2023-02-28T10:21:46;3.47;;;2.80;;
16731;SDS011;8484;50.904;9.192;2023-02-28T10:24:20;3.50;;;3.20;;
16731;SDS011;8484;50.904;9.192;2023-02-28T10:26:56;3.00;;;2.80;;
16731;SDS011;8484;50.904;9.192;2023-02-28T10:29:27;3.10;;;2.90;;
16731;SDS011;8484;50.904;9.192;2023-02-28T10:31:58;3.20;;;3.00;;
16731;SDS011;8484;50.904;9.192;2023-02-28T10:34:29;2.90;;;2.70;;
16731;SDS011;8484;50.904;9.192;2023-02-28T10:36:56;4.47;;;3.40;;
16731;SDS011;8484;50.904;9.192;2023-02-28T10:39:39;3.27;;;3.07;;
16731;SDS011;8484;50.904;9.192;2023-02-28T10:42:24;4.27;;;3.10;;
16731;SDS011;8484;50.904;9.192;2023-02-28T10:45:04;3.57;;;3.10;;
16731;SDS011;8484;50.904;9.192;2023-02-28T10:47:33;3.50;;;3.20;;
16731;SDS011;8484;50.904;9.192;2023-02-28T10:50:06;3.00;;;2.80;;
16731;SDS011;8484;50.904;9.192;2023-02-28T10:52:53;3.93;;;3.40;;
16731;SDS011;8484;50.904;9.192;2023-02-28T10:55:21;3.77;;;3.50;;
16731;SDS011;8484;50.904;9.192;2023-02-28T10:57:50;3.63;;;3.33;;
16731;SDS011;8484;50.904;9.192;2023-02-28T11:00:18;3.60;;;3.30;;
16731;SDS011;8484;50.904;9.192;2023-02-28T11:02:47;3.67;;;3.40;;
16731;SDS011;8484;50.904;9.192;2023-02-28T11:05:26;3.03;;;2.73;;
16731;SDS011;8484;50.904;9.192;2023-02-28T11:07:54;3.37;;;3.17;;
16731;SDS011;8484;50.904;9.192;2023-02-28T11:10:24;3.00;;;2.80;;
16731;SDS011;8484;50.904;9.192;2023-02-28T11:12:55;3.30;;;2.87;;
16731;SDS011;8484;50.904;9.192;2023-02-28T11:15:23;2.57;;;2.47;;
16731;SDS011;8484;50.904;9.192;2023-02-28T11:17:56;3.00;;;2.80;;
16731;SDS011;8484;50.904;9.192;2023-02-28T11:20:27;2.20;;;2.10;;
16731;SDS011;8484;50.904;9.192;2023-02-28T11:22:55;2.83;;;2.63;;
16731;SDS011;8484;50.904;9.192;2023-02-28T11:25:26;2.70;;;2.50;;
16731;SDS011;8484;50.904;9.192;2023-02-28T11:27:56;3.50;;;3.27;;
16731;SDS011;8484;50.904;9.192;2023-02-28T11:30:31;2.80;;;2.60;;
16731;SDS011;8484;50.904;9.192;2023-02-28T11:33:00;2.90;;;2.70;;
16731;SDS011;8484;50.904;9.192;2023-02-28T11:35:46;3.10;;;2.90;;
16731;SDS011;8484;50.904;9.192;2023-02-28T11:38:15;3.20;;;2.90;;
16731;SDS011;8484;50.904;9.192;2023-02-28T11:40:43;2.80;;;2.60;;
16731;SDS011;8484;50.904;9.192;2023-02-28T11:43:20;2.80;;;2.60;;
16731;SDS011;8484;50.904;9.192;2023-02-28T11:45:58;2.97;;;2.63;;
16731;SDS011;8484;50.904;9.192;2023-02-28T11:48:40;2.70;;;2.50;;
16731;SDS011;8484;50.904;9.192;2023-02-28T11:51:20;2.67;;;2.47;;
16731;SDS011;8484;50.904;9.192;2023-02-28T11:53:51;2.97;;;2.77;;
16731;SDS011;8484;50.904;9.192;2023-02-28T11:56:31;2.87;;;2.67;;
16731;SDS011;8484;50.904;9.192;2023-02-28T11:59:05;3.40;;;3.10;;
16731;SDS011;8484;50.904;9.192;2023-02-28T12:01:58;3.17;;;2.97;;
16731;SDS011;8484;50.904;9.192;2023-02-28T12:04:45;3.27;;;2.97;;
16731;SDS011;8484;50.904;9.192;2023-02-28T12:07:23;3.00;;;2.80;;
16731;SDS011;8484;50.904;9.192;2023-02-28T12:10:00;3.17;;;2.97;;
16731;SDS011;8484;50.904;9.192;2023-02-28T12:12:38;3.07;;;2.87;;
16731;SDS011;8484;50.904;9.192;2023-02-28T12:18:08;2.40;;;2.30;;
16731;SDS011;8484;50.904;9.192;2023-02-28T12:20:46;3.20;;;3.00;;
16731;SDS011;8484;50.904;9.192;2023-02-28T12:26:14;3.47;;;3.17;;
16731;SDS011;8484;50.904;9.192;2023-02-28T12:28:46;3.00;;;2.80;;
16731;SDS011;8484;50.904;9.192;2023-02-28T12:31:17;3.10;;;2.90;;
16731;SDS011;8484;50.904;9.192;2023-02-28T12:33:48;3.53;;;3.00;;
16731;SDS011;8484;50.904;9.192;2023-02-28T12:36:19;15.03;;;3.00;;
16731;SDS011;8484;50.904;9.192;2023-02-28T12:38:50;3.17;;;2.87;;
16731;SDS011;8484;50.904;9.192;2023-02-28T12:41:22;3.03;;;2.83;;
16731;SDS011;8484;50.904;9.192;2023-02-28T12:43:54;2.97;;;2.70;;
16731;SDS011;8484;50.904;9.192;2023-02-28T12:46:25;2.60;;;2.40;;
16731;SDS011;8484;50.904;9.192;2023-02-28T12:48:56;3.03;;;2.77;;
16731;SDS011;8484;50.904;9.192;2023-02-28T12:51:25;2.60;;;2.40;;
16731;SDS011;8484;50.904;9.192;2023-02-28T12:53:56;2.70;;;2.50;;
16731;SDS011;8484;50.904;9.192;2023-02-28T12:56:30;2.60;;;2.40;;
16731;SDS011;8484;50.904;9.192;2023-02-28T12:59:06;2.80;;;2.50;;
16731;SDS011;8484;50.904;9.192;2023-02-28T13:01:50;2.90;;;2.70;;
16731;SDS011;8484;50.904;9.192;2023-02-28T13:04:42;2.40;;;2.30;;
16731;SDS011;8484;50.904;9.192;2023-02-28T13:07:35;2.80;;;2.60;;
16731;SDS011;8484;50.904;9.192;2023-02-28T13:10:41;3.90;;;2.80;;
16731;SDS011;8484;50.904;9.192;2023-02-28T13:13:13;4.07;;;3.43;;
16731;SDS011;8484;50.904;9.192;2023-02-28T13:15:56;3.43;;;3.00;;
16731;SDS011;8484;50.904;9.192;2023-02-28T13:18:29;2.70;;;2.50;;
16731;SDS011;8484;50.904;9.192;2023-02-28T13:20:58;2.80;;;2.60;;
16731;SDS011;8484;50.904;9.192;2023-02-28T13:23:36;2.53;;;2.33;;
16731;SDS011;8484;50.904;9.192;2023-02-28T13:26:07;2.90;;;2.70;;
16731;SDS011;8484;50.904;9.192;2023-02-28T13:35:14;3.07;;;2.87;;
16731;SDS011;8484;50.904;9.192;2023-02-28T13:38:09;2.90;;;2.70;;
16731;SDS011;8484;50.904;9.192;2023-02-28T13:44:09;2.63;;;2.43;;
16731;SDS011;8484;50.904;9.192;2023-02-28T13:47:13;3.00;;;2.80;;
16731;SDS011;8484;50.904;9.192;2023-02-28T13:49:47;4.13;;;2.93;;
16731;SDS011;8484;50.904;9.192;2023-02-28T13:52:16;2.90;;;2.70;;
16731;SDS011;8484;50.904;9.192;2023-02-28T13:54:58;2.87;;;2.67;;
16731;SDS011;8484;50.904;9.192;2023-02-28T13:57:52;3.50;;;3.10;;
16731;SDS011;8484;50.904;9.192;2023-02-28T14:00:31;3.60;;;3.00;;
16731;SDS011;8484;50.904;9.192;2023-02-28T14:06:07;3.27;;;2.90;;
16731;SDS011;8484;50.904;9.192;2023-02-28T14:08:44;3.27;;;2.97;;
16731;SDS011;8484;50.904;9.192;2023-02-28T14:11:23;2.83;;;2.63;;
16731;SDS011;8484;50.904;9.192;2023-02-28T14:14:03;2.53;;;2.37;;
16731;SDS011;8484;50.904;9.192;2023-02-28T14:16:36;3.23;;;2.90;;
16731;SDS011;8484;50.904;9.192;2023-02-28T14:19:09;3.23;;;2.93;;
16731;SDS011;8484;50.904;9.192;2023-02-28T14:21:39;3.10;;;2.90;;
16731;SDS011;8484;50.904;9.192;2023-02-28T14:24:26;3.23;;;2.93;;
16731;SDS011;8484;50.904;9.192;2023-02-28T14:27:17;3.47;;;3.17;;
16731;SDS011;8484;50.904;9.192;2023-02-28T14:30:11;3.80;;;3.50;;
16731;SDS011;8484;50.904;9.192;2023-02-28T14:32:47;3.73;;;3.43;;
16731;SDS011;8484;50.904;9.192;2023-02-28T14:35:39;3.77;;;3.47;;
16731;SDS011;8484;50.904;9.192;2023-02-28T14:38:14;3.47;;;3.17;;
16731;SDS011;8484;50.904;9.192;2023-02-28T14:40:46;4.53;;;3.27;;
16731;SDS011;8484;50.904;9.192;2023-02-28T14:43:19;3.73;;;3.43;;
16731;SDS011;8484;50.904;9.192;2023-02-28T14:45:50;3.70;;;3.40;;
16731;SDS011;8484;50.904;9.192;2023-02-28T14:48:19;3.30;;;3.10;;
16731;SDS011;8484;50.904;9.192;2023-02-28T14:50:48;3.30;;;3.00;;
16731;SDS011;8484;50.904;9.192;2023-02-28T14:53:18;3.40;;;3.10;;
16731;SDS011;8484;50.904;9.192;2023-02-28T14:55:47;4.73;;;2.87;;
16731;SDS011;8484;50.904;9.192;2023-02-28T14:58:20;3.80;;;3.23;;
16731;SDS011;8484;50.904;9.192;2023-02-28T15:00:51;3.60;;;3.30;;
16731;SDS011;8484;50.904;9.192;2023-02-28T15:03:20;3.47;;;3.17;;
16731;SDS011;8484;50.904;9.192;2023-02-28T15:05:51;3.37;;;3.07;;
16731;SDS011;8484;50.904;9.192;2023-02-28T15:08:19;3.60;;;3.30;;
16731;SDS011;8484;50.904;9.192;2023-02-28T15:10:50;3.83;;;3.13;;
16731;SDS011;8484;50.904;9.192;2023-02-28T15:13:20;3.60;;;3.30;;
16731;SDS011;8484;50.904;9.192;2023-02-28T15:15:48;4.10;;;3.07;;
16731;SDS011;8484;50.904;9.192;2023-02-28T15:18:25;3.67;;;3.37;;
16731;SDS011;8484;50.904;9.192;2023-02-28T15:20:57;3.27;;;3.07;;
16731;SDS011;8484;50.904;9.192;2023-02-28T15:23:28;3.60;;;3.30;;
16731;SDS011;8484;50.904;9.192;2023-02-28T15:25:55;3.93;;;3.30;;
16731;SDS011;8484;50.904;9.192;2023-02-28T15:28:23;3.77;;;3.40;;
16731;SDS011;8484;50.904;9.192;2023-02-28T15:30:53;3.20;;;3.00;;
16731;SDS011;8484;50.904;9.192;2023-02-28T15:33:23;3.60;;;3.30;;
16731;SDS011;8484;50.904;9.192;2023-02-28T15:35:51;3.53;;;2.97;;
16731;SDS011;8484;50.904;9.192;2023-02-28T15:38:29;3.53;;;3.23;;
16731;SDS011;8484;50.904;9.192;2023-02-28T15:40:59;4.50;;;3.30;;
16731;SDS011;8484;50.904;9.192;2023-02-28T15:43:26;3.47;;;3.17;;
16731;SDS011;8484;50.904;9.192;2023-02-28T15:45:59;3.20;;;3.00;;